sensor_id;sensor_type;location;lat;lon;timestamp;temperature;humidity
54558;DHT22;40452;50.080;20.040;2023-05-07T04:36:58;21.20;46.60
54558;DHT22;40452;50.080;20.040;2023-05-07T04:39:26;21.20;46.60
54558;DHT22;40452;50.080;20.040;2023-05-07T04:41:52;21.20;46.70
54558;DHT22;40452;50.080;20.040;2023-05-07T04:44:17;21.20;47.30
54558;DHT22;40452;50.080;20.040;2023-05-07T04:46:43;21.20;46.70
54558;DHT22;40452;50.080;20.040;2023-05-07T04:49:09;21.30;46.80
54558;DHT22;40452;50.080;20.040;2023-05-07T04:51:35;21.30;47.30
54558;DHT22;40452;50.080;20.040;2023-05-07T04:54:00;21.20;46.50
54558;DHT22;40452;50.080;20.040;2023-05-07T04:56:28;21.30;46.90
54558;DHT22;40452;50.080;20.040;2023-05-07T04:58:55;21.30;46.40
54558;DHT22;40452;50.080;20.040;2023-05-07T05:01:20;21.20;45.90
54558;DHT22;40452;50.080;20.040;2023-05-07T05:03:46;21.20;45.80
54558;DHT22;40452;50.080;20.040;2023-05-07T05:06:11;21.20;45.90
54558;DHT22;40452;50.080;20.040;2023-05-07T05:08:37;21.20;45.80
54558;DHT22;40452;50.080;20.040;2023-05-07T05:11:02;21.20;46.60
54558;DHT22;40452;50.080;20.040;2023-05-07T05:13:28;21.20;45.70
54558;DHT22;40452;50.080;20.040;2023-05-07T05:15:53;21.20;45.70
54558;DHT22;40452;50.080;20.040;2023-05-07T05:18:19;21.20;45.60
54558;DHT22;40452;50.080;20.040;2023-05-07T05:20:45;21.20;45.40
54558;DHT22;40452;50.080;20.040;2023-05-07T05:23:11;21.20;45.50
54558;DHT22;40452;50.080;20.040;2023-05-07T05:25:36;21.20;45.40
54558;DHT22;40452;50.080;20.040;2023-05-07T05:28:02;21.10;45.20
54558;DHT22;40452;50.080;20.040;2023-05-07T05:30:28;21.20;45.30
54558;DHT22;40452;50.080;20.040;2023-05-07T05:32:53;21.10;45.40
54558;DHT22;40452;50.080;20.040;2023-05-07T05:35:19;21.20;45.60
54558;DHT22;40452;50.080;20.040;2023-05-07T05:37:44;21.20;46.00
54558;DHT22;40452;50.080;20.040;2023-05-07T05:40:10;21.20;45.90
54558;DHT22;40452;50.080;20.040;2023-05-07T05:42:36;21.20;46.00
54558;DHT22;40452;50.080;20.040;2023-05-07T05:45:01;21.20;46.00
54558;DHT22;40452;50.080;20.040;2023-05-07T05:47:27;21.20;45.90
54558;DHT22;40452;50.080;20.040;2023-05-07T05:49:52;21.20;45.90
54558;DHT22;40452;50.080;20.040;2023-05-07T05:52:18;21.20;45.80
54558;DHT22;40452;50.080;20.040;2023-05-07T05:54:43;21.20;45.70
54558;DHT22;40452;50.080;20.040;2023-05-07T05:57:09;21.20;45.90
54558;DHT22;40452;50.080;20.040;2023-05-07T05:59:34;21.20;45.70
54558;DHT22;40452;50.080;20.040;2023-05-07T06:02:00;21.20;46.20
54558;DHT22;40452;50.080;20.040;2023-05-07T06:04:26;21.30;46.50
54558;DHT22;40452;50.080;20.040;2023-05-07T06:06:51;21.40;46.60
54558;DHT22;40452;50.080;20.040;2023-05-07T06:09:18;21.30;46.60
54558;DHT22;40452;50.080;20.040;2023-05-07T06:11:43;21.40;46.70
54558;DHT22;40452;50.080;20.040;2023-05-07T06:14:15;21.40;46.80
54558;DHT22;40452;50.080;20.040;2023-05-07T06:16:43;21.40;46.90
54558;DHT22;40452;50.080;20.040;2023-05-07T06:19:09;21.40;47.00
54558;DHT22;40452;50.080;20.040;2023-05-07T06:21:38;21.50;47.10
54558;DHT22;40452;50.080;20.040;2023-05-07T06:24:04;21.50;47.00
54558;DHT22;40452;50.080;20.040;2023-05-07T06:26:31;21.50;45.90
54558;DHT22;40452;50.080;20.040;2023-05-07T06:28:57;21.50;46.80
54558;DHT22;40452;50.080;20.040;2023-05-07T06:31:22;21.50;47.00
54558;DHT22;40452;50.080;20.040;2023-05-07T06:33:49;21.50;46.80
54558;DHT22;40452;50.080;20.040;2023-05-07T06:36:15;21.50;47.10
54558;DHT22;40452;50.080;20.040;2023-05-07T06:38:40;21.60;47.20
54558;DHT22;40452;50.080;20.040;2023-05-07T06:41:06;21.60;46.40
54558;DHT22;40452;50.080;20.040;2023-05-07T06:43:32;21.50;45.80
54558;DHT22;40452;50.080;20.040;2023-05-07T06:45:57;21.60;46.10
54558;DHT22;40452;50.080;20.040;2023-05-07T06:48:23;21.60;45.80
54558;DHT22;40452;50.080;20.040;2023-05-07T06:50:51;21.50;45.90
54558;DHT22;40452;50.080;20.040;2023-05-07T06:53:19;21.60;45.90
54558;DHT22;40452;50.080;20.040;2023-05-07T06:55:45;21.50;45.90
54558;DHT22;40452;50.080;20.040;2023-05-07T06:58:10;21.50;45.80
54558;DHT22;40452;50.080;20.040;2023-05-07T07:00:36;21.50;45.70
54558;DHT22;40452;50.080;20.040;2023-05-07T07:03:01;21.50;45.40
54558;DHT22;40452;50.080;20.040;2023-05-07T07:05:27;21.50;45.60
54558;DHT22;40452;50.080;20.040;2023-05-07T07:07:52;21.60;45.60
54558;DHT22;40452;50.080;20.040;2023-05-07T07:10:19;21.50;45.50
54558;DHT22;40452;50.080;20.040;2023-05-07T07:12:45;21.50;45.50
54558;DHT22;40452;50.080;20.040;2023-05-07T07:15:11;21.50;45.50
54558;DHT22;40452;50.080;20.040;2023-05-07T07:17:36;21.50;45.60
54558;DHT22;40452;50.080;20.040;2023-05-07T07:20:02;21.50;45.50
54558;DHT22;40452;50.080;20.040;2023-05-07T07:22:28;21.50;45.60
54558;DHT22;40452;50.080;20.040;2023-05-07T07:24:54;21.50;45.40
54558;DHT22;40452;50.080;20.040;2023-05-07T07:27:19;21.50;45.20
54558;DHT22;40452;50.080;20.040;2023-05-07T07:29:45;21.50;45.30
54558;DHT22;40452;50.080;20.040;2023-05-07T07:32:10;21.50;45.20
54558;DHT22;40452;50.080;20.040;2023-05-07T07:34:36;21.50;45.20
54558;DHT22;40452;50.080;20.040;2023-05-07T07:37:01;21.50;45.30
54558;DHT22;40452;50.080;20.040;2023-05-07T07:39:32;21.50;45.30
54558;DHT22;40452;50.080;20.040;2023-05-07T07:41:57;21.50;45.10
54558;DHT22;40452;50.080;20.040;2023-05-07T07:44:23;21.50;45.20
54558;DHT22;40452;50.080;20.040;2023-05-07T07:46:48;21.50;45.10
54558;DHT22;40452;50.080;20.040;2023-05-07T07:49:15;21.50;45.10
54558;DHT22;40452;50.080;20.040;2023-05-07T07:51:40;21.50;45.10
54558;DHT22;40452;50.080;20.040;2023-05-07T07:54:06;21.50;45.00
54558;DHT22;40452;50.080;20.040;2023-05-07T07:56:32;21.50;45.10
54558;DHT22;40452;50.080;20.040;2023-05-07T07:58:58;21.50;45.00
54558;DHT22;40452;50.080;20.040;2023-05-07T08:01:24;21.40;45.00
54558;DHT22;40452;50.080;20.040;2023-05-07T08:03:50;21.50;44.90
54558;DHT22;40452;50.080;20.040;2023-05-07T08:06:15;21.50;44.90
54558;DHT22;40452;50.080;20.040;2023-05-07T08:08:41;21.40;44.90
54558;DHT22;40452;50.080;20.040;2023-05-07T08:11:06;21.50;45.00
54558;DHT22;40452;50.080;20.040;2023-05-07T08:13:32;21.50;44.90
54558;DHT22;40452;50.080;20.040;2023-05-07T08:15:58;21.50;45.30
54558;DHT22;40452;50.080;20.040;2023-05-07T08:18:24;21.60;45.40
54558;DHT22;40452;50.080;20.040;2023-05-07T08:20:50;21.60;45.50
54558;DHT22;40452;50.080;20.040;2023-05-07T08:23:16;21.70;45.70
54558;DHT22;40452;50.080;20.040;2023-05-07T08:25:41;21.70;45.80
54558;DHT22;40452;50.080;20.040;2023-05-07T08:28:08;21.70;45.90
54558;DHT22;40452;50.080;20.040;2023-05-07T08:30:33;21.80;46.00
54558;DHT22;40452;50.080;20.040;2023-05-07T08:33:00;21.80;46.00
54558;DHT22;40452;50.080;20.040;2023-05-07T08:35:25;21.80;45.90
54558;DHT22;40452;50.080;20.040;2023-05-07T08:37:52;21.80;46.10
54558;DHT22;40452;50.080;20.040;2023-05-07T08:40:18;21.80;46.00
54558;DHT22;40452;50.080;20.040;2023-05-07T08:42:44;21.90;46.10
54558;DHT22;40452;50.080;20.040;2023-05-07T08:45:10;21.90;46.10
54558;DHT22;40452;50.080;20.040;2023-05-07T08:47:43;21.90;46.20
54558;DHT22;40452;50.080;20.040;2023-05-07T08:50:12;22.00;46.30
54558;DHT22;40452;50.080;20.040;2023-05-07T08:52:39;22.00;46.30
54558;DHT22;40452;50.080;20.040;2023-05-07T08:55:06;22.00;46.30
54558;DHT22;40452;50.080;20.040;2023-05-07T08:57:32;22.00;46.30
54558;DHT22;40452;50.080;20.040;2023-05-07T08:59:58;22.00;46.20
54558;DHT22;40452;50.080;20.040;2023-05-07T09:02:23;22.10;46.40
54558;DHT22;40452;50.080;20.040;2023-05-07T09:04:51;22.10;46.30
54558;DHT22;40452;50.080;20.040;2023-05-07T09:07:19;22.10;46.40
54558;DHT22;40452;50.080;20.040;2023-05-07T09:09:45;22.20;46.40
54558;DHT22;40452;50.080;20.040;2023-05-07T09:12:11;22.20;46.40
54558;DHT22;40452;50.080;20.040;2023-05-07T09:14:37;22.20;46.40
54558;DHT22;40452;50.080;20.040;2023-05-07T09:17:03;22.20;46.40
54558;DHT22;40452;50.080;20.040;2023-05-07T09:19:28;22.20;46.40
54558;DHT22;40452;50.080;20.040;2023-05-07T09:22:04;22.20;46.40
54558;DHT22;40452;50.080;20.040;2023-05-07T09:24:30;22.30;46.40
54558;DHT22;40452;50.080;20.040;2023-05-07T09:27:00;22.30;46.40
54558;DHT22;40452;50.080;20.040;2023-05-07T09:29:26;22.30;46.40
54558;DHT22;40452;50.080;20.040;2023-05-07T09:31:54;22.30;46.50
54558;DHT22;40452;50.080;20.040;2023-05-07T09:34:20;22.30;46.40
54558;DHT22;40452;50.080;20.040;2023-05-07T09:36:46;22.30;46.40
54558;DHT22;40452;50.080;20.040;2023-05-07T09:39:11;22.40;46.50
54558;DHT22;40452;50.080;20.040;2023-05-07T09:41:47;22.40;46.10
54558;DHT22;40452;50.080;20.040;2023-05-07T09:44:15;22.40;46.20
54558;DHT22;40452;50.080;20.040;2023-05-07T09:46:43;22.40;45.70
54558;DHT22;40452;50.080;20.040;2023-05-07T09:49:17;22.30;45.80
54558;DHT22;40452;50.080;20.040;2023-05-07T09:51:48;22.40;45.50
54558;DHT22;40452;50.080;20.040;2023-05-07T09:54:15;22.30;45.80
54558;DHT22;40452;50.080;20.040;2023-05-07T09:56:40;22.30;45.30
54558;DHT22;40452;50.080;20.040;2023-05-07T09:59:07;22.30;45.30
54558;DHT22;40452;50.080;20.040;2023-05-07T10:01:36;22.30;45.20
54558;DHT22;40452;50.080;20.040;2023-05-07T10:04:02;22.30;45.40
54558;DHT22;40452;50.080;20.040;2023-05-07T10:06:34;22.30;45.30
54558;DHT22;40452;50.080;20.040;2023-05-07T10:09:00;22.30;45.50
54558;DHT22;40452;50.080;20.040;2023-05-07T10:11:35;22.30;45.50
54558;DHT22;40452;50.080;20.040;2023-05-07T10:14:01;22.30;45.70
54558;DHT22;40452;50.080;20.040;2023-05-07T10:16:36;22.30;45.90
54558;DHT22;40452;50.080;20.040;2023-05-07T10:19:06;22.30;46.00
54558;DHT22;40452;50.080;20.040;2023-05-07T10:21:36;22.40;46.00
54558;DHT22;40452;50.080;20.040;2023-05-07T10:24:06;22.40;45.90
54558;DHT22;40452;50.080;20.040;2023-05-07T10:26:36;22.30;46.00
54558;DHT22;40452;50.080;20.040;2023-05-07T10:29:10;22.30;45.80
54558;DHT22;40452;50.080;20.040;2023-05-07T10:31:48;22.30;45.70
54558;DHT22;40452;50.080;20.040;2023-05-07T10:34:23;22.30;45.60
54558;DHT22;40452;50.080;20.040;2023-05-07T10:36:50;22.30;45.50
54558;DHT22;40452;50.080;20.040;2023-05-07T10:39:17;22.30;45.60
54558;DHT22;40452;50.080;20.040;2023-05-07T10:41:42;22.30;45.50
54558;DHT22;40452;50.080;20.040;2023-05-07T10:44:11;22.30;45.40
54558;DHT22;40452;50.080;20.040;2023-05-07T10:46:37;22.30;45.40
54558;DHT22;40452;50.080;20.040;2023-05-07T10:51:32;22.30;45.40
54558;DHT22;40452;50.080;20.040;2023-05-07T10:56:40;22.30;45.20
54558;DHT22;40452;50.080;20.040;2023-05-07T10:59:37;22.40;45.20
54558;DHT22;40452;50.080;20.040;2023-05-07T11:02:07;22.40;45.10
54558;DHT22;40452;50.080;20.040;2023-05-07T11:04:35;22.30;45.10
54558;DHT22;40452;50.080;20.040;2023-05-07T11:15:11;22.30;45.20
54558;DHT22;40452;50.080;20.040;2023-05-07T11:18:02;22.40;45.20
54558;DHT22;40452;50.080;20.040;2023-05-07T11:21:07;22.40;45.50
54558;DHT22;40452;50.080;20.040;2023-05-07T11:26:09;22.40;45.40
54558;DHT22;40452;50.080;20.040;2023-05-07T11:28:39;22.50;45.30
54558;DHT22;40452;50.080;20.040;2023-05-07T11:31:05;22.40;45.40
54558;DHT22;40452;50.080;20.040;2023-05-07T11:33:31;22.40;45.40
54558;DHT22;40452;50.080;20.040;2023-05-07T11:35:57;22.40;45.40
54558;DHT22;40452;50.080;20.040;2023-05-07T11:38:25;22.40;45.50
54558;DHT22;40452;50.080;20.040;2023-05-07T11:40:55;22.40;45.50
54558;DHT22;40452;50.080;20.040;2023-05-07T11:43:20;22.40;45.30
54558;DHT22;40452;50.080;20.040;2023-05-07T11:45:46;22.50;45.30
54558;DHT22;40452;50.080;20.040;2023-05-07T11:48:13;22.50;45.10
54558;DHT22;40452;50.080;20.040;2023-05-07T11:50:51;22.40;45.00
54558;DHT22;40452;50.080;20.040;2023-05-07T11:53:24;22.40;45.00
54558;DHT22;40452;50.080;20.040;2023-05-07T11:55:54;22.50;45.30
54558;DHT22;40452;50.080;20.040;2023-05-07T11:58:21;22.50;45.20
54558;DHT22;40452;50.080;20.040;2023-05-07T12:00:53;22.50;45.40
54558;DHT22;40452;50.080;20.040;2023-05-07T12:03:20;22.50;45.80
54558;DHT22;40452;50.080;20.040;2023-05-07T12:05:46;22.60;45.50
54558;DHT22;40452;50.080;20.040;2023-05-07T12:08:21;22.50;45.20
54558;DHT22;40452;50.080;20.040;2023-05-07T12:10:49;22.50;45.40
54558;DHT22;40452;50.080;20.040;2023-05-07T12:13:18;22.40;45.40
54558;DHT22;40452;50.080;20.040;2023-05-07T12:15:53;22.40;45.40
54558;DHT22;40452;50.080;20.040;2023-05-07T12:18:22;22.40;45.10
54558;DHT22;40452;50.080;20.040;2023-05-07T12:20:50;22.40;45.00
54558;DHT22;40452;50.080;20.040;2023-05-07T12:23:17;22.40;44.90
54558;DHT22;40452;50.080;20.040;2023-05-07T12:25:43;22.40;45.30
54558;DHT22;40452;50.080;20.040;2023-05-07T12:28:16;22.30;45.40
54558;DHT22;40452;50.080;20.040;2023-05-07T12:30:43;22.40;45.40
54558;DHT22;40452;50.080;20.040;2023-05-07T12:33:09;22.40;45.10
54558;DHT22;40452;50.080;20.040;2023-05-07T12:35:42;22.40;45.30
54558;DHT22;40452;50.080;20.040;2023-05-07T12:38:15;22.30;45.20
54558;DHT22;40452;50.080;20.040;2023-05-07T12:40:47;22.30;45.00
54558;DHT22;40452;50.080;20.040;2023-05-07T12:43:27;22.30;45.10
54558;DHT22;40452;50.080;20.040;2023-05-07T12:45:57;22.30;45.00
54558;DHT22;40452;50.080;20.040;2023-05-07T12:48:23;22.40;45.30
54558;DHT22;40452;50.080;20.040;2023-05-07T12:50:55;22.30;45.00
54558;DHT22;40452;50.080;20.040;2023-05-07T12:53:23;22.40;45.40
54558;DHT22;40452;50.080;20.040;2023-05-07T12:55:52;22.30;45.00
54558;DHT22;40452;50.080;20.040;2023-05-07T13:00:45;22.30;45.30
54558;DHT22;40452;50.080;20.040;2023-05-07T13:03:21;22.40;45.10
54558;DHT22;40452;50.080;20.040;2023-05-07T13:05:47;22.40;45.40
54558;DHT22;40452;50.080;20.040;2023-05-07T13:08:23;22.40;45.40
54558;DHT22;40452;50.080;20.040;2023-05-07T13:10:49;22.40;45.30
54558;DHT22;40452;50.080;20.040;2023-05-07T13:13:14;22.40;45.40
54558;DHT22;40452;50.080;20.040;2023-05-07T13:15:40;22.50;45.40
54558;DHT22;40452;50.080;20.040;2023-05-07T13:18:05;22.60;45.30
54558;DHT22;40452;50.080;20.040;2023-05-07T13:20:31;22.70;45.30
54558;DHT22;40452;50.080;20.040;2023-05-07T13:22:56;22.80;45.80
54558;DHT22;40452;50.080;20.040;2023-05-07T13:25:22;22.90;45.80
54558;DHT22;40452;50.080;20.040;2023-05-07T13:27:47;23.00;45.80
54558;DHT22;40452;50.080;20.040;2023-05-07T13:30:13;23.00;45.70
54558;DHT22;40452;50.080;20.040;2023-05-07T13:32:38;23.10;45.50
54558;DHT22;40452;50.080;20.040;2023-05-07T13:35:04;23.10;45.40
54558;DHT22;40452;50.080;20.040;2023-05-07T13:37:30;23.10;45.30
54558;DHT22;40452;50.080;20.040;2023-05-07T13:39:55;23.10;45.20
54558;DHT22;40452;50.080;20.040;2023-05-07T13:42:21;23.20;45.30
54558;DHT22;40452;50.080;20.040;2023-05-07T13:44:46;23.20;45.30
54558;DHT22;40452;50.080;20.040;2023-05-07T13:47:13;23.20;45.10
54558;DHT22;40452;50.080;20.040;2023-05-07T13:49:38;23.20;45.00
54558;DHT22;40452;50.080;20.040;2023-05-07T13:52:04;23.20;44.90
54558;DHT22;40452;50.080;20.040;2023-05-07T13:54:29;23.20;44.90
54558;DHT22;40452;50.080;20.040;2023-05-07T13:56:55;23.20;44.70
54558;DHT22;40452;50.080;20.040;2023-05-07T13:59:20;23.30;44.70
54558;DHT22;40452;50.080;20.040;2023-05-07T14:01:46;23.30;44.60
54558;DHT22;40452;50.080;20.040;2023-05-07T14:04:12;23.30;44.70
54558;DHT22;40452;50.080;20.040;2023-05-07T14:06:38;23.30;44.50
54558;DHT22;40452;50.080;20.040;2023-05-07T14:09:04;23.30;44.40
54558;DHT22;40452;50.080;20.040;2023-05-07T14:11:29;23.30;44.40
54558;DHT22;40452;50.080;20.040;2023-05-07T14:13:55;23.30;44.30
54558;DHT22;40452;50.080;20.040;2023-05-07T14:16:22;23.30;44.30
54558;DHT22;40452;50.080;20.040;2023-05-07T14:18:47;23.30;44.20
54558;DHT22;40452;50.080;20.040;2023-05-07T14:21:13;23.30;44.30
54558;DHT22;40452;50.080;20.040;2023-05-07T14:23:39;23.30;44.30
54558;DHT22;40452;50.080;20.040;2023-05-07T14:26:04;23.30;44.30
54558;DHT22;40452;50.080;20.040;2023-05-07T14:28:30;23.30;44.30
54558;DHT22;40452;50.080;20.040;2023-05-07T14:30:56;23.30;44.40
54558;DHT22;40452;50.080;20.040;2023-05-07T14:33:21;23.40;44.40
54558;DHT22;40452;50.080;20.040;2023-05-07T14:35:47;23.50;44.70
54558;DHT22;40452;50.080;20.040;2023-05-07T14:38:14;23.60;44.70
54558;DHT22;40452;50.080;20.040;2023-05-07T14:40:41;23.70;45.30
54558;DHT22;40452;50.080;20.040;2023-05-07T14:43:06;23.70;45.20
54558;DHT22;40452;50.080;20.040;2023-05-07T14:45:32;23.80;44.40
54558;DHT22;40452;50.080;20.040;2023-05-07T14:47:57;23.80;44.30
54558;DHT22;40452;50.080;20.040;2023-05-07T14:50:23;23.80;44.20
54558;DHT22;40452;50.080;20.040;2023-05-07T14:52:48;23.80;44.10
54558;DHT22;40452;50.080;20.040;2023-05-07T14:55:14;23.70;43.90
54558;DHT22;40452;50.080;20.040;2023-05-07T14:57:39;23.60;43.80
54558;DHT22;40452;50.080;20.040;2023-05-07T15:00:06;23.60;43.80
54558;DHT22;40452;50.080;20.040;2023-05-07T15:02:32;23.50;43.80
54558;DHT22;40452;50.080;20.040;2023-05-07T15:04:59;23.40;43.70
54558;DHT22;40452;50.080;20.040;2023-05-07T15:07:24;23.30;43.60
54558;DHT22;40452;50.080;20.040;2023-05-07T15:09:50;23.30;43.50
54558;DHT22;40452;50.080;20.040;2023-05-07T15:12:16;23.30;43.70
54558;DHT22;40452;50.080;20.040;2023-05-07T15:14:42;23.30;43.40
54558;DHT22;40452;50.080;20.040;2023-05-07T15:17:07;23.30;43.40
54558;DHT22;40452;50.080;20.040;2023-05-07T15:19:33;23.30;43.30
54558;DHT22;40452;50.080;20.040;2023-05-07T15:21:59;23.30;43.50
54558;DHT22;40452;50.080;20.040;2023-05-07T15:24:28;23.30;43.50
54558;DHT22;40452;50.080;20.040;2023-05-07T15:26:53;23.20;43.50
54558;DHT22;40452;50.080;20.040;2023-05-07T15:29:19;23.20;43.50
54558;DHT22;40452;50.080;20.040;2023-05-07T15:31:45;23.20;43.40
54558;DHT22;40452;50.080;20.040;2023-05-07T15:34:11;23.20;43.50
54558;DHT22;40452;50.080;20.040;2023-05-07T15:36:36;23.20;43.50
54558;DHT22;40452;50.080;20.040;2023-05-07T15:39:02;23.20;43.50
54558;DHT22;40452;50.080;20.040;2023-05-07T15:41:29;23.20;43.40
54558;DHT22;40452;50.080;20.040;2023-05-07T15:43:54;23.20;43.40
54558;DHT22;40452;50.080;20.040;2023-05-07T15:46:21;23.10;43.50
54558;DHT22;40452;50.080;20.040;2023-05-07T15:48:48;23.10;43.60
54558;DHT22;40452;50.080;20.040;2023-05-07T15:51:21;23.10;43.70
54558;DHT22;40452;50.080;20.040;2023-05-07T15:53:48;23.10;43.90
54558;DHT22;40452;50.080;20.040;2023-05-07T15:56:14;23.10;43.50
54558;DHT22;40452;50.080;20.040;2023-05-07T15:58:39;23.10;43.50
54558;DHT22;40452;50.080;20.040;2023-05-07T16:01:05;23.10;43.60
54558;DHT22;40452;50.080;20.040;2023-05-07T16:03:31;23.10;44.30
54558;DHT22;40452;50.080;20.040;2023-05-07T16:05:57;23.10;43.70
54558;DHT22;40452;50.080;20.040;2023-05-07T16:08:23;23.00;43.80
54558;DHT22;40452;50.080;20.040;2023-05-07T16:10:49;23.00;43.50
54558;DHT22;40452;50.080;20.040;2023-05-07T16:13:14;23.00;43.80
54558;DHT22;40452;50.080;20.040;2023-05-07T16:15:43;23.00;43.90
54558;DHT22;40452;50.080;20.040;2023-05-07T16:18:10;23.00;43.90
54558;DHT22;40452;50.080;20.040;2023-05-07T16:20:36;22.90;43.60
54558;DHT22;40452;50.080;20.040;2023-05-07T16:23:02;22.90;43.90
54558;DHT22;40452;50.080;20.040;2023-05-07T16:25:28;22.90;43.50
54558;DHT22;40452;50.080;20.040;2023-05-07T16:27:54;22.90;43.60
54558;DHT22;40452;50.080;20.040;2023-05-07T16:30:20;22.90;43.60
54558;DHT22;40452;50.080;20.040;2023-05-07T16:32:45;22.90;43.60
54558;DHT22;40452;50.080;20.040;2023-05-07T16:35:11;22.90;43.60
54558;DHT22;40452;50.080;20.040;2023-05-07T16:37:39;22.90;43.60
54558;DHT22;40452;50.080;20.040;2023-05-07T16:40:06;22.90;43.50
54558;DHT22;40452;50.080;20.040;2023-05-07T16:42:33;22.90;43.50
54558;DHT22;40452;50.080;20.040;2023-05-07T16:44:59;22.90;43.50
54558;DHT22;40452;50.080;20.040;2023-05-07T16:47:25;22.90;43.50
54558;DHT22;40452;50.080;20.040;2023-05-07T16:49:50;22.80;43.50
54558;DHT22;40452;50.080;20.040;2023-05-07T16:52:16;22.80;43.60
54558;DHT22;40452;50.080;20.040;2023-05-07T16:54:42;22.80;43.70
54558;DHT22;40452;50.080;20.040;2023-05-07T16:57:07;22.80;43.50
54558;DHT22;40452;50.080;20.040;2023-05-07T16:59:33;22.80;43.30
54558;DHT22;40452;50.080;20.040;2023-05-07T17:01:58;22.70;42.50
54558;DHT22;40452;50.080;20.040;2023-05-07T17:04:24;22.60;42.10
54558;DHT22;40452;50.080;20.040;2023-05-07T17:06:49;22.50;42.30
54558;DHT22;40452;50.080;20.040;2023-05-07T17:09:15;22.40;41.70
54558;DHT22;40452;50.080;20.040;2023-05-07T17:11:41;22.40;41.50
54558;DHT22;40452;50.080;20.040;2023-05-07T17:14:06;22.30;41.40
54558;DHT22;40452;50.080;20.040;2023-05-07T17:16:32;22.30;41.40
54558;DHT22;40452;50.080;20.040;2023-05-07T17:18:58;22.20;41.30
54558;DHT22;40452;50.080;20.040;2023-05-07T17:21:23;22.20;41.10
54558;DHT22;40452;50.080;20.040;2023-05-07T17:23:49;22.10;41.10
54558;DHT22;40452;50.080;20.040;2023-05-07T17:26:15;22.10;41.20
54558;DHT22;40452;50.080;20.040;2023-05-07T17:28:41;22.10;40.90
54558;DHT22;40452;50.080;20.040;2023-05-07T17:31:07;22.10;40.80
54558;DHT22;40452;50.080;20.040;2023-05-07T17:33:32;22.00;40.80
54558;DHT22;40452;50.080;20.040;2023-05-07T17:35:58;21.90;40.60
54558;DHT22;40452;50.080;20.040;2023-05-07T17:38:23;21.90;40.60
54558;DHT22;40452;50.080;20.040;2023-05-07T17:40:49;21.90;40.50
54558;DHT22;40452;50.080;20.040;2023-05-07T17:43:15;21.80;40.20
54558;DHT22;40452;50.080;20.040;2023-05-07T17:45:41;21.80;40.30
54558;DHT22;40452;50.080;20.040;2023-05-07T17:48:06;21.80;40.60
54558;DHT22;40452;50.080;20.040;2023-05-07T17:50:32;21.90;41.10
54558;DHT22;40452;50.080;20.040;2023-05-07T17:52:57;21.90;41.30
54558;DHT22;40452;50.080;20.040;2023-05-07T17:55:23;22.00;41.60
54558;DHT22;40452;50.080;20.040;2023-05-07T17:57:49;22.10;41.70
54558;DHT22;40452;50.080;20.040;2023-05-07T18:02:40;22.00;41.60
54558;DHT22;40452;50.080;20.040;2023-05-07T18:05:07;22.00;42.20
54558;DHT22;40452;50.080;20.040;2023-05-07T18:07:33;22.00;42.40
54558;DHT22;40452;50.080;20.040;2023-05-07T18:09:59;22.00;42.50
54558;DHT22;40452;50.080;20.040;2023-05-07T18:12:24;22.00;42.60
54558;DHT22;40452;50.080;20.040;2023-05-07T18:14:50;22.00;42.60
54558;DHT22;40452;50.080;20.040;2023-05-07T18:17:15;22.00;42.80
54558;DHT22;40452;50.080;20.040;2023-05-07T18:19:41;22.00;42.90
54558;DHT22;40452;50.080;20.040;2023-05-07T18:22:07;22.00;43.00
54558;DHT22;40452;50.080;20.040;2023-05-07T18:24:33;22.10;43.00
54558;DHT22;40452;50.080;20.040;2023-05-07T18:26:58;22.10;43.20
54558;DHT22;40452;50.080;20.040;2023-05-07T18:29:24;22.10;43.10
54558;DHT22;40452;50.080;20.040;2023-05-07T18:31:49;22.10;43.20
54558;DHT22;40452;50.080;20.040;2023-05-07T18:34:15;22.10;43.10
54558;DHT22;40452;50.080;20.040;2023-05-07T18:36:41;22.10;43.20
54558;DHT22;40452;50.080;20.040;2023-05-07T18:39:06;22.10;43.50
54558;DHT22;40452;50.080;20.040;2023-05-07T18:41:33;22.20;43.50
54558;DHT22;40452;50.080;20.040;2023-05-07T18:43:59;22.20;43.10
54558;DHT22;40452;50.080;20.040;2023-05-07T18:46:25;22.20;43.10
54558;DHT22;40452;50.080;20.040;2023-05-07T18:48:50;22.10;43.20
54558;DHT22;40452;50.080;20.040;2023-05-07T18:53:42;22.10;42.60
54558;DHT22;40452;50.080;20.040;2023-05-07T18:56:08;22.10;43.20
54558;DHT22;40452;50.080;20.040;2023-05-07T18:58:34;22.10;43.20
54558;DHT22;40452;50.080;20.040;2023-05-07T19:01:00;22.10;43.10
